sensor_id;sensor_type;location;lat;lon;timestamp;P1;durP1;ratioP1;P2;durP2;ratioP2
10719;SDS011;5411;58.386;15.560;2024-02-14T00:01:12;6.47;;;3.40;;
10719;SDS011;5411;58.386;15.560;2024-02-14T00:03:43;5.33;;;3.10;;
10719;SDS011;5411;58.386;15.560;2024-02-14T00:06:14;7.50;;;3.90;;
10719;SDS011;5411;58.386;15.560;2024-02-14T00:08:43;5.77;;;2.93;;
10719;SDS011;5411;58.386;15.560;2024-02-14T00:11:12;7.43;;;3.30;;
10719;SDS011;5411;58.386;15.560;2024-02-14T00:13:44;4.03;;;3.00;;
10719;SDS011;5411;58.386;15.560;2024-02-14T00:16:12;7.43;;;3.10;;
10719;SDS011;5411;58.386;15.560;2024-02-14T00:18:42;6.17;;;3.17;;
10719;SDS011;5411;58.386;15.560;2024-02-14T00:21:11;8.47;;;3.20;;
10719;SDS011;5411;58.386;15.560;2024-02-14T00:23:41;6.30;;;2.63;;
10719;SDS011;5411;58.386;15.560;2024-02-14T00:26:10;4.10;;;2.70;;
10719;SDS011;5411;58.386;15.560;2024-02-14T00:28:38;5.20;;;3.07;;
10719;SDS011;5411;58.386;15.560;2024-02-14T00:31:08;5.60;;;2.67;;
10719;SDS011;5411;58.386;15.560;2024-02-14T00:33:36;5.50;;;2.57;;
10719;SDS011;5411;58.386;15.560;2024-02-14T00:36:05;6.03;;;2.83;;
10719;SDS011;5411;58.386;15.560;2024-02-14T00:38:34;6.23;;;2.30;;
10719;SDS011;5411;58.386;15.560;2024-02-14T00:41:02;6.60;;;2.30;;
10719;SDS011;5411;58.386;15.560;2024-02-14T00:43:31;5.53;;;2.10;;
10719;SDS011;5411;58.386;15.560;2024-02-14T00:48:22;8.43;;;2.37;;
10719;SDS011;5411;58.386;15.560;2024-02-14T00:50:51;4.87;;;2.77;;
10719;SDS011;5411;58.386;15.560;2024-02-14T00:53:19;5.63;;;2.30;;
10719;SDS011;5411;58.386;15.560;2024-02-14T00:55:48;7.10;;;2.60;;
10719;SDS011;5411;58.386;15.560;2024-02-14T00:58:26;7.47;;;2.43;;
10719;SDS011;5411;58.386;15.560;2024-02-14T01:00:55;2.87;;;2.07;;
10719;SDS011;5411;58.386;15.560;2024-02-14T01:09:56;5.17;;;2.77;;
10719;SDS011;5411;58.386;15.560;2024-02-14T01:12:42;3.93;;;2.10;;
10719;SDS011;5411;58.386;15.560;2024-02-14T01:16:19;3.57;;;2.40;;
10719;SDS011;5411;58.386;15.560;2024-02-14T01:25:38;5.13;;;2.33;;
10719;SDS011;5411;58.386;15.560;2024-02-14T01:28:57;6.57;;;2.27;;
10719;SDS011;5411;58.386;15.560;2024-02-14T01:36:07;6.07;;;2.53;;
10719;SDS011;5411;58.386;15.560;2024-02-14T01:42:46;4.03;;;2.30;;
10719;SDS011;5411;58.386;15.560;2024-02-14T01:45:15;8.87;;;2.33;;
10719;SDS011;5411;58.386;15.560;2024-02-14T02:02:41;7.87;;;2.60;;
10719;SDS011;5411;58.386;15.560;2024-02-14T02:08:40;6.03;;;2.40;;
10719;SDS011;5411;58.386;15.560;2024-02-14T02:11:14;6.33;;;1.93;;
10719;SDS011;5411;58.386;15.560;2024-02-14T02:13:56;6.90;;;2.20;;
10719;SDS011;5411;58.386;15.560;2024-02-14T02:16:32;11.40;;;2.10;;
10719;SDS011;5411;58.386;15.560;2024-02-14T02:19:02;7.97;;;2.10;;
10719;SDS011;5411;58.386;15.560;2024-02-14T02:22:14;7.67;;;2.53;;
10719;SDS011;5411;58.386;15.560;2024-02-14T02:25:03;12.70;;;2.27;;
10719;SDS011;5411;58.386;15.560;2024-02-14T02:28:03;9.07;;;2.63;;
10719;SDS011;5411;58.386;15.560;2024-02-14T02:34:59;6.23;;;2.83;;
10719;SDS011;5411;58.386;15.560;2024-02-14T02:41:53;6.30;;;2.57;;
10719;SDS011;5411;58.386;15.560;2024-02-14T02:44:46;7.67;;;2.50;;
10719;SDS011;5411;58.386;15.560;2024-02-14T02:51:01;8.10;;;2.40;;
10719;SDS011;5411;58.386;15.560;2024-02-14T03:01:14;4.20;;;2.03;;
10719;SDS011;5411;58.386;15.560;2024-02-14T03:03:44;10.03;;;2.20;;
10719;SDS011;5411;58.386;15.560;2024-02-14T03:06:16;12.17;;;2.23;;
10719;SDS011;5411;58.386;15.560;2024-02-14T03:13:32;6.87;;;2.27;;
10719;SDS011;5411;58.386;15.560;2024-02-14T03:16:02;8.90;;;2.43;;
10719;SDS011;5411;58.386;15.560;2024-02-14T03:18:37;6.30;;;2.43;;
10719;SDS011;5411;58.386;15.560;2024-02-14T03:21:06;9.13;;;2.77;;
10719;SDS011;5411;58.386;15.560;2024-02-14T03:27:43;6.77;;;2.53;;
10719;SDS011;5411;58.386;15.560;2024-02-14T03:34:42;8.10;;;2.57;;
10719;SDS011;5411;58.386;15.560;2024-02-14T03:42:07;7.27;;;2.60;;
10719;SDS011;5411;58.386;15.560;2024-02-14T03:45:10;7.77;;;2.77;;
10719;SDS011;5411;58.386;15.560;2024-02-14T03:47:39;8.10;;;2.10;;
10719;SDS011;5411;58.386;15.560;2024-02-14T04:05:30;10.17;;;2.77;;
10719;SDS011;5411;58.386;15.560;2024-02-14T04:08:07;4.27;;;2.37;;
10719;SDS011;5411;58.386;15.560;2024-02-14T04:17:29;5.13;;;2.13;;
10719;SDS011;5411;58.386;15.560;2024-02-14T04:20:05;4.13;;;2.10;;
10719;SDS011;5411;58.386;15.560;2024-02-14T04:22:41;8.77;;;2.50;;
10719;SDS011;5411;58.386;15.560;2024-02-14T04:32:16;7.37;;;2.60;;
10719;SDS011;5411;58.386;15.560;2024-02-14T04:38:27;8.90;;;2.70;;
10719;SDS011;5411;58.386;15.560;2024-02-14T04:49:14;7.47;;;2.30;;
10719;SDS011;5411;58.386;15.560;2024-02-14T04:51:43;8.87;;;2.60;;
10719;SDS011;5411;58.386;15.560;2024-02-14T04:57:13;10.13;;;2.30;;
10719;SDS011;5411;58.386;15.560;2024-02-14T05:00:05;5.47;;;2.43;;
10719;SDS011;5411;58.386;15.560;2024-02-14T05:09:37;8.77;;;3.20;;
10719;SDS011;5411;58.386;15.560;2024-02-14T05:27:11;6.27;;;2.20;;
10719;SDS011;5411;58.386;15.560;2024-02-14T05:29:40;9.60;;;3.13;;
10719;SDS011;5411;58.386;15.560;2024-02-14T05:39:35;8.33;;;3.30;;
10719;SDS011;5411;58.386;15.560;2024-02-14T05:42:04;12.90;;;3.47;;
10719;SDS011;5411;58.386;15.560;2024-02-14T06:03:13;9.27;;;2.77;;
10719;SDS011;5411;58.386;15.560;2024-02-14T06:09:18;10.83;;;3.57;;
10719;SDS011;5411;58.386;15.560;2024-02-14T06:12:40;10.40;;;3.03;;
10719;SDS011;5411;58.386;15.560;2024-02-14T06:22:35;11.27;;;3.20;;
10719;SDS011;5411;58.386;15.560;2024-02-14T06:25:35;8.00;;;3.43;;
10719;SDS011;5411;58.386;15.560;2024-02-14T06:28:08;6.80;;;3.07;;
10719;SDS011;5411;58.386;15.560;2024-02-14T06:34:25;14.00;;;3.53;;
10719;SDS011;5411;58.386;15.560;2024-02-14T06:40:25;6.50;;;2.80;;
10719;SDS011;5411;58.386;15.560;2024-02-14T06:44:08;8.00;;;3.40;;
10719;SDS011;5411;58.386;15.560;2024-02-14T06:47:22;11.13;;;3.47;;
10719;SDS011;5411;58.386;15.560;2024-02-14T06:50:27;5.57;;;3.03;;
10719;SDS011;5411;58.386;15.560;2024-02-14T07:03:28;7.07;;;2.93;;
10719;SDS011;5411;58.386;15.560;2024-02-14T07:25:26;6.70;;;3.43;;
10719;SDS011;5411;58.386;15.560;2024-02-14T07:27:56;8.40;;;2.57;;
10719;SDS011;5411;58.386;15.560;2024-02-14T07:30:24;9.97;;;3.10;;
10719;SDS011;5411;58.386;15.560;2024-02-14T07:32:53;9.20;;;3.20;;
10719;SDS011;5411;58.386;15.560;2024-02-14T07:35:21;9.40;;;2.90;;
10719;SDS011;5411;58.386;15.560;2024-02-14T07:37:50;7.80;;;3.10;;
10719;SDS011;5411;58.386;15.560;2024-02-14T07:40:19;5.97;;;2.73;;
10719;SDS011;5411;58.386;15.560;2024-02-14T07:42:49;9.40;;;2.73;;
10719;SDS011;5411;58.386;15.560;2024-02-14T07:45:18;5.13;;;2.93;;
10719;SDS011;5411;58.386;15.560;2024-02-14T07:47:50;7.13;;;2.93;;
10719;SDS011;5411;58.386;15.560;2024-02-14T07:50:26;6.80;;;2.90;;
10719;SDS011;5411;58.386;15.560;2024-02-14T07:52:55;9.50;;;2.97;;
10719;SDS011;5411;58.386;15.560;2024-02-14T07:55:26;8.50;;;3.10;;
10719;SDS011;5411;58.386;15.560;2024-02-14T07:57:56;9.70;;;2.90;;
10719;SDS011;5411;58.386;15.560;2024-02-14T08:00:26;5.70;;;2.70;;
10719;SDS011;5411;58.386;15.560;2024-02-14T08:02:54;10.40;;;3.57;;
10719;SDS011;5411;58.386;15.560;2024-02-14T08:05:23;6.90;;;2.90;;
10719;SDS011;5411;58.386;15.560;2024-02-14T08:07:51;6.50;;;3.10;;
10719;SDS011;5411;58.386;15.560;2024-02-14T08:10:20;8.80;;;3.63;;
10719;SDS011;5411;58.386;15.560;2024-02-14T08:12:49;7.90;;;3.27;;
10719;SDS011;5411;58.386;15.560;2024-02-14T08:15:18;9.10;;;3.03;;
10719;SDS011;5411;58.386;15.560;2024-02-14T08:17:47;8.93;;;3.00;;
10719;SDS011;5411;58.386;15.560;2024-02-14T08:20:16;6.80;;;2.63;;
10719;SDS011;5411;58.386;15.560;2024-02-14T08:22:45;4.60;;;2.70;;
10719;SDS011;5411;58.386;15.560;2024-02-14T08:25:14;9.00;;;2.97;;
10719;SDS011;5411;58.386;15.560;2024-02-14T08:27:43;6.53;;;3.03;;
10719;SDS011;5411;58.386;15.560;2024-02-14T08:30:12;4.97;;;2.80;;
10719;SDS011;5411;58.386;15.560;2024-02-14T08:32:43;7.03;;;2.33;;
10719;SDS011;5411;58.386;15.560;2024-02-14T08:35:11;7.07;;;2.97;;
10719;SDS011;5411;58.386;15.560;2024-02-14T08:37:40;4.40;;;2.67;;
10719;SDS011;5411;58.386;15.560;2024-02-14T08:40:09;6.07;;;2.80;;
10719;SDS011;5411;58.386;15.560;2024-02-14T08:42:39;4.00;;;2.90;;
10719;SDS011;5411;58.386;15.560;2024-02-14T08:45:08;6.00;;;2.77;;
10719;SDS011;5411;58.386;15.560;2024-02-14T08:47:37;7.37;;;3.77;;
10719;SDS011;5411;58.386;15.560;2024-02-14T08:50:09;5.00;;;2.60;;
10719;SDS011;5411;58.386;15.560;2024-02-14T08:52:40;5.03;;;2.60;;
10719;SDS011;5411;58.386;15.560;2024-02-14T08:55:09;6.70;;;2.80;;
10719;SDS011;5411;58.386;15.560;2024-02-14T08:57:43;6.60;;;2.77;;
10719;SDS011;5411;58.386;15.560;2024-02-14T09:00:15;6.67;;;2.67;;
10719;SDS011;5411;58.386;15.560;2024-02-14T09:02:47;5.33;;;2.87;;
10719;SDS011;5411;58.386;15.560;2024-02-14T09:05:17;5.80;;;3.13;;
10719;SDS011;5411;58.386;15.560;2024-02-14T09:07:46;5.30;;;2.80;;
10719;SDS011;5411;58.386;15.560;2024-02-14T09:10:14;7.30;;;2.90;;
10719;SDS011;5411;58.386;15.560;2024-02-14T09:12:42;5.27;;;2.87;;
10719;SDS011;5411;58.386;15.560;2024-02-14T09:15:11;6.53;;;2.97;;
10719;SDS011;5411;58.386;15.560;2024-02-14T09:17:40;4.87;;;2.47;;
10719;SDS011;5411;58.386;15.560;2024-02-14T09:20:09;4.97;;;2.57;;
10719;SDS011;5411;58.386;15.560;2024-02-14T09:22:42;3.77;;;2.80;;
10719;SDS011;5411;58.386;15.560;2024-02-14T09:25:14;5.73;;;3.07;;
10719;SDS011;5411;58.386;15.560;2024-02-14T09:27:42;7.67;;;3.00;;
10719;SDS011;5411;58.386;15.560;2024-02-14T09:30:14;5.10;;;2.60;;
10719;SDS011;5411;58.386;15.560;2024-02-14T09:32:57;4.03;;;2.40;;
10719;SDS011;5411;58.386;15.560;2024-02-14T09:35:27;6.43;;;2.63;;
10719;SDS011;5411;58.386;15.560;2024-02-14T09:37:57;7.33;;;3.00;;
10719;SDS011;5411;58.386;15.560;2024-02-14T09:40:26;4.80;;;2.60;;
10719;SDS011;5411;58.386;15.560;2024-02-14T09:42:55;4.60;;;2.80;;
10719;SDS011;5411;58.386;15.560;2024-02-14T09:45:25;5.07;;;2.70;;
10719;SDS011;5411;58.386;15.560;2024-02-14T09:47:53;3.87;;;2.60;;
10719;SDS011;5411;58.386;15.560;2024-02-14T09:50:22;4.40;;;2.67;;
10719;SDS011;5411;58.386;15.560;2024-02-14T09:52:52;5.13;;;2.93;;
10719;SDS011;5411;58.386;15.560;2024-02-14T09:55:25;5.60;;;3.03;;
10719;SDS011;5411;58.386;15.560;2024-02-14T09:57:54;4.97;;;2.80;;
10719;SDS011;5411;58.386;15.560;2024-02-14T10:00:24;6.17;;;3.23;;
10719;SDS011;5411;58.386;15.560;2024-02-14T10:02:53;5.53;;;2.83;;
10719;SDS011;5411;58.386;15.560;2024-02-14T10:05:22;5.33;;;2.57;;
10719;SDS011;5411;58.386;15.560;2024-02-14T10:07:51;5.70;;;3.10;;
10719;SDS011;5411;58.386;15.560;2024-02-14T10:10:26;6.57;;;2.63;;
10719;SDS011;5411;58.386;15.560;2024-02-14T10:12:54;5.63;;;2.97;;
10719;SDS011;5411;58.386;15.560;2024-02-14T10:15:25;4.67;;;2.83;;
10719;SDS011;5411;58.386;15.560;2024-02-14T10:17:54;4.40;;;3.03;;
10719;SDS011;5411;58.386;15.560;2024-02-14T10:20:24;5.17;;;2.90;;
10719;SDS011;5411;58.386;15.560;2024-02-14T10:22:59;4.07;;;3.10;;
10719;SDS011;5411;58.386;15.560;2024-02-14T10:25:35;4.90;;;2.97;;
10719;SDS011;5411;58.386;15.560;2024-02-14T10:28:05;6.40;;;3.10;;
10719;SDS011;5411;58.386;15.560;2024-02-14T10:30:35;5.40;;;3.03;;
10719;SDS011;5411;58.386;15.560;2024-02-14T10:33:05;5.00;;;2.60;;
10719;SDS011;5411;58.386;15.560;2024-02-14T10:35:49;5.50;;;3.80;;
10719;SDS011;5411;58.386;15.560;2024-02-14T10:38:25;4.30;;;3.37;;
10719;SDS011;5411;58.386;15.560;2024-02-14T10:40:59;5.70;;;2.50;;
10719;SDS011;5411;58.386;15.560;2024-02-14T10:43:28;3.90;;;2.50;;
10719;SDS011;5411;58.386;15.560;2024-02-14T10:46:00;6.43;;;3.07;;
10719;SDS011;5411;58.386;15.560;2024-02-14T10:48:58;5.00;;;3.13;;
10719;SDS011;5411;58.386;15.560;2024-02-14T10:51:33;4.53;;;2.97;;
10719;SDS011;5411;58.386;15.560;2024-02-14T10:54:03;3.83;;;2.27;;
10719;SDS011;5411;58.386;15.560;2024-02-14T10:56:38;3.10;;;2.50;;
10719;SDS011;5411;58.386;15.560;2024-02-14T10:59:10;3.10;;;2.67;;
10719;SDS011;5411;58.386;15.560;2024-02-14T11:01:41;5.00;;;2.70;;
10719;SDS011;5411;58.386;15.560;2024-02-14T11:04:12;3.50;;;2.97;;
10719;SDS011;5411;58.386;15.560;2024-02-14T11:06:45;4.03;;;2.90;;
10719;SDS011;5411;58.386;15.560;2024-02-14T11:09:14;2.90;;;2.60;;
10719;SDS011;5411;58.386;15.560;2024-02-14T11:11:45;3.87;;;2.87;;
10719;SDS011;5411;58.386;15.560;2024-02-14T11:14:14;3.70;;;2.47;;
10719;SDS011;5411;58.386;15.560;2024-02-14T11:16:45;4.60;;;2.30;;
10719;SDS011;5411;58.386;15.560;2024-02-14T11:19:13;6.17;;;2.53;;
10719;SDS011;5411;58.386;15.560;2024-02-14T11:21:44;3.70;;;2.87;;
10719;SDS011;5411;58.386;15.560;2024-02-14T11:24:17;3.93;;;2.67;;
10719;SDS011;5411;58.386;15.560;2024-02-14T11:26:48;4.90;;;3.13;;
10719;SDS011;5411;58.386;15.560;2024-02-14T11:29:18;4.30;;;2.57;;
10719;SDS011;5411;58.386;15.560;2024-02-14T11:31:57;4.30;;;3.60;;
10719;SDS011;5411;58.386;15.560;2024-02-14T11:34:29;3.53;;;3.17;;
10719;SDS011;5411;58.386;15.560;2024-02-14T11:37:04;4.77;;;3.40;;
10719;SDS011;5411;58.386;15.560;2024-02-14T11:39:33;8.43;;;3.33;;
10719;SDS011;5411;58.386;15.560;2024-02-14T11:42:04;3.53;;;2.90;;
10719;SDS011;5411;58.386;15.560;2024-02-14T11:44:33;6.40;;;3.17;;
10719;SDS011;5411;58.386;15.560;2024-02-14T11:47:04;4.90;;;3.07;;
10719;SDS011;5411;58.386;15.560;2024-02-14T11:49:32;4.07;;;3.10;;
10719;SDS011;5411;58.386;15.560;2024-02-14T11:52:01;5.47;;;3.63;;
10719;SDS011;5411;58.386;15.560;2024-02-14T11:54:30;4.40;;;3.30;;
10719;SDS011;5411;58.386;15.560;2024-02-14T11:56:59;7.70;;;3.83;;
10719;SDS011;5411;58.386;15.560;2024-02-14T11:59:30;6.23;;;3.00;;
10719;SDS011;5411;58.386;15.560;2024-02-14T12:01:59;5.33;;;3.60;;
10719;SDS011;5411;58.386;15.560;2024-02-14T12:04:29;3.67;;;3.07;;
10719;SDS011;5411;58.386;15.560;2024-02-14T12:06:58;6.87;;;3.60;;
10719;SDS011;5411;58.386;15.560;2024-02-14T12:09:26;3.37;;;2.93;;
10719;SDS011;5411;58.386;15.560;2024-02-14T12:11:56;5.17;;;3.40;;
10719;SDS011;5411;58.386;15.560;2024-02-14T12:14:25;5.40;;;3.43;;
10719;SDS011;5411;58.386;15.560;2024-02-14T12:16:59;3.87;;;3.20;;
10719;SDS011;5411;58.386;15.560;2024-02-14T12:19:29;3.93;;;3.50;;
10719;SDS011;5411;58.386;15.560;2024-02-14T12:21:59;3.57;;;2.80;;
10719;SDS011;5411;58.386;15.560;2024-02-14T12:24:30;4.53;;;3.10;;
10719;SDS011;5411;58.386;15.560;2024-02-14T12:26:58;5.77;;;2.90;;
10719;SDS011;5411;58.386;15.560;2024-02-14T12:29:27;4.03;;;2.80;;
10719;SDS011;5411;58.386;15.560;2024-02-14T12:32:04;4.00;;;2.40;;
10719;SDS011;5411;58.386;15.560;2024-02-14T12:34:33;3.93;;;2.17;;
10719;SDS011;5411;58.386;15.560;2024-02-14T12:37:02;3.57;;;2.50;;
10719;SDS011;5411;58.386;15.560;2024-02-14T12:39:32;3.40;;;2.37;;
10719;SDS011;5411;58.386;15.560;2024-02-14T12:42:00;4.53;;;2.33;;
10719;SDS011;5411;58.386;15.560;2024-02-14T12:44:29;4.60;;;2.80;;
10719;SDS011;5411;58.386;15.560;2024-02-14T12:46:58;2.73;;;2.00;;
10719;SDS011;5411;58.386;15.560;2024-02-14T12:49:28;5.67;;;2.60;;
10719;SDS011;5411;58.386;15.560;2024-02-14T12:51:58;6.87;;;2.63;;
10719;SDS011;5411;58.386;15.560;2024-02-14T12:54:26;5.07;;;2.67;;
10719;SDS011;5411;58.386;15.560;2024-02-14T12:56:55;3.70;;;2.00;;
10719;SDS011;5411;58.386;15.560;2024-02-14T12:59:23;5.20;;;2.23;;
10719;SDS011;5411;58.386;15.560;2024-02-14T13:01:52;4.47;;;2.33;;
10719;SDS011;5411;58.386;15.560;2024-02-14T13:04:20;4.80;;;2.20;;
10719;SDS011;5411;58.386;15.560;2024-02-14T13:06:50;2.93;;;2.03;;
10719;SDS011;5411;58.386;15.560;2024-02-14T13:09:21;3.00;;;2.20;;
10719;SDS011;5411;58.386;15.560;2024-02-14T13:11:49;4.57;;;2.00;;
10719;SDS011;5411;58.386;15.560;2024-02-14T13:14:18;5.70;;;2.80;;
10719;SDS011;5411;58.386;15.560;2024-02-14T13:16:46;4.87;;;2.43;;
10719;SDS011;5411;58.386;15.560;2024-02-14T13:19:15;5.63;;;2.70;;
10719;SDS011;5411;58.386;15.560;2024-02-14T13:21:45;3.07;;;2.10;;
10719;SDS011;5411;58.386;15.560;2024-02-14T13:24:17;4.07;;;2.90;;
10719;SDS011;5411;58.386;15.560;2024-02-14T13:26:46;3.53;;;2.10;;
10719;SDS011;5411;58.386;15.560;2024-02-14T13:29:14;5.00;;;2.30;;
10719;SDS011;5411;58.386;15.560;2024-02-14T13:31:44;3.47;;;1.80;;
10719;SDS011;5411;58.386;15.560;2024-02-14T13:34:12;4.47;;;2.23;;
10719;SDS011;5411;58.386;15.560;2024-02-14T13:36:42;3.77;;;1.97;;
10719;SDS011;5411;58.386;15.560;2024-02-14T13:39:10;7.97;;;2.33;;
10719;SDS011;5411;58.386;15.560;2024-02-14T13:41:41;2.97;;;1.70;;
10719;SDS011;5411;58.386;15.560;2024-02-14T13:44:11;6.47;;;1.93;;
10719;SDS011;5411;58.386;15.560;2024-02-14T13:46:43;5.23;;;1.90;;
10719;SDS011;5411;58.386;15.560;2024-02-14T13:49:12;5.30;;;2.33;;
10719;SDS011;5411;58.386;15.560;2024-02-14T13:51:47;3.80;;;2.00;;
10719;SDS011;5411;58.386;15.560;2024-02-14T13:54:16;5.13;;;1.87;;
10719;SDS011;5411;58.386;15.560;2024-02-14T13:56:46;3.37;;;1.97;;
10719;SDS011;5411;58.386;15.560;2024-02-14T13:59:15;2.13;;;1.93;;
10719;SDS011;5411;58.386;15.560;2024-02-14T14:01:45;3.97;;;2.20;;
10719;SDS011;5411;58.386;15.560;2024-02-14T14:04:14;3.07;;;2.10;;
10719;SDS011;5411;58.386;15.560;2024-02-14T14:06:43;4.93;;;2.17;;
10719;SDS011;5411;58.386;15.560;2024-02-14T14:09:14;8.67;;;2.57;;
10719;SDS011;5411;58.386;15.560;2024-02-14T14:11:47;3.20;;;2.03;;
10719;SDS011;5411;58.386;15.560;2024-02-14T14:14:17;4.33;;;2.57;;
10719;SDS011;5411;58.386;15.560;2024-02-14T14:16:46;3.53;;;1.97;;
10719;SDS011;5411;58.386;15.560;2024-02-14T14:19:14;5.07;;;2.20;;
10719;SDS011;5411;58.386;15.560;2024-02-14T14:21:43;5.10;;;2.20;;
10719;SDS011;5411;58.386;15.560;2024-02-14T14:24:11;3.97;;;2.30;;
10719;SDS011;5411;58.386;15.560;2024-02-14T14:26:40;2.87;;;2.30;;
10719;SDS011;5411;58.386;15.560;2024-02-14T14:29:10;4.70;;;2.47;;
10719;SDS011;5411;58.386;15.560;2024-02-14T14:31:38;4.33;;;2.53;;
10719;SDS011;5411;58.386;15.560;2024-02-14T14:34:06;3.43;;;2.37;;
10719;SDS011;5411;58.386;15.560;2024-02-14T14:36:35;6.83;;;2.67;;
10719;SDS011;5411;58.386;15.560;2024-02-14T14:39:04;4.93;;;2.60;;
10719;SDS011;5411;58.386;15.560;2024-02-14T14:41:33;6.10;;;2.90;;
10719;SDS011;5411;58.386;15.560;2024-02-14T14:44:01;3.73;;;2.53;;
10719;SDS011;5411;58.386;15.560;2024-02-14T14:46:32;5.17;;;2.63;;
10719;SDS011;5411;58.386;15.560;2024-02-14T14:49:02;5.20;;;3.23;;
10719;SDS011;5411;58.386;15.560;2024-02-14T14:51:30;4.17;;;2.50;;
10719;SDS011;5411;58.386;15.560;2024-02-14T14:54:02;5.03;;;2.40;;
10719;SDS011;5411;58.386;15.560;2024-02-14T14:56:31;3.80;;;2.47;;
10719;SDS011;5411;58.386;15.560;2024-02-14T14:58:59;6.77;;;2.90;;
10719;SDS011;5411;58.386;15.560;2024-02-14T15:01:30;5.07;;;2.30;;
10719;SDS011;5411;58.386;15.560;2024-02-14T15:04:00;3.50;;;2.33;;
10719;SDS011;5411;58.386;15.560;2024-02-14T15:06:29;5.27;;;3.03;;
10719;SDS011;5411;58.386;15.560;2024-02-14T15:08:57;3.90;;;2.80;;
10719;SDS011;5411;58.386;15.560;2024-02-14T15:11:26;4.97;;;2.80;;
10719;SDS011;5411;58.386;15.560;2024-02-14T15:13:54;5.63;;;2.80;;
10719;SDS011;5411;58.386;15.560;2024-02-14T15:16:23;4.67;;;2.70;;
10719;SDS011;5411;58.386;15.560;2024-02-14T15:18:53;6.33;;;2.70;;
10719;SDS011;5411;58.386;15.560;2024-02-14T15:21:30;6.57;;;2.60;;
10719;SDS011;5411;58.386;15.560;2024-02-14T15:24:05;6.83;;;2.80;;
10719;SDS011;5411;58.386;15.560;2024-02-14T15:26:35;4.80;;;2.90;;
10719;SDS011;5411;58.386;15.560;2024-02-14T15:29:16;4.83;;;2.87;;
10719;SDS011;5411;58.386;15.560;2024-02-14T15:32:03;2.67;;;2.47;;
10719;SDS011;5411;58.386;15.560;2024-02-14T15:34:54;6.23;;;3.60;;
10719;SDS011;5411;58.386;15.560;2024-02-14T15:37:22;5.53;;;3.03;;
10719;SDS011;5411;58.386;15.560;2024-02-14T15:39:50;10.33;;;4.67;;
10719;SDS011;5411;58.386;15.560;2024-02-14T15:42:29;3.30;;;3.00;;
10719;SDS011;5411;58.386;15.560;2024-02-14T15:45:00;5.10;;;3.80;;
10719;SDS011;5411;58.386;15.560;2024-02-14T15:47:34;6.43;;;3.13;;
10719;SDS011;5411;58.386;15.560;2024-02-14T15:50:05;6.93;;;3.83;;
10719;SDS011;5411;58.386;15.560;2024-02-14T15:52:34;6.97;;;3.70;;
10719;SDS011;5411;58.386;15.560;2024-02-14T15:55:04;5.30;;;3.37;;
10719;SDS011;5411;58.386;15.560;2024-02-14T15:57:34;5.03;;;3.73;;
10719;SDS011;5411;58.386;15.560;2024-02-14T16:00:03;12.07;;;4.10;;
10719;SDS011;5411;58.386;15.560;2024-02-14T16:02:32;5.83;;;3.63;;
10719;SDS011;5411;58.386;15.560;2024-02-14T16:05:01;5.87;;;3.97;;
10719;SDS011;5411;58.386;15.560;2024-02-14T16:07:33;9.37;;;3.77;;
10719;SDS011;5411;58.386;15.560;2024-02-14T16:10:01;7.50;;;3.70;;
10719;SDS011;5411;58.386;15.560;2024-02-14T16:12:33;6.87;;;3.53;;
10719;SDS011;5411;58.386;15.560;2024-02-14T16:15:01;5.30;;;3.80;;
10719;SDS011;5411;58.386;15.560;2024-02-14T16:17:30;8.33;;;3.73;;
10719;SDS011;5411;58.386;15.560;2024-02-14T16:20:06;5.87;;;2.97;;
10719;SDS011;5411;58.386;15.560;2024-02-14T16:22:37;10.40;;;4.87;;
10719;SDS011;5411;58.386;15.560;2024-02-14T16:25:07;5.70;;;3.60;;
10719;SDS011;5411;58.386;15.560;2024-02-14T16:27:36;5.47;;;3.33;;
10719;SDS011;5411;58.386;15.560;2024-02-14T16:30:07;6.77;;;4.03;;
10719;SDS011;5411;58.386;15.560;2024-02-14T16:32:37;5.53;;;3.93;;
10719;SDS011;5411;58.386;15.560;2024-02-14T16:35:06;4.93;;;3.57;;
10719;SDS011;5411;58.386;15.560;2024-02-14T16:37:36;8.47;;;3.90;;
10719;SDS011;5411;58.386;15.560;2024-02-14T16:40:05;9.63;;;4.23;;
10719;SDS011;5411;58.386;15.560;2024-02-14T16:42:36;5.80;;;3.90;;
10719;SDS011;5411;58.386;15.560;2024-02-14T16:45:05;8.07;;;4.40;;
10719;SDS011;5411;58.386;15.560;2024-02-14T16:47:35;6.33;;;3.77;;
10719;SDS011;5411;58.386;15.560;2024-02-14T16:50:04;6.17;;;3.90;;
10719;SDS011;5411;58.386;15.560;2024-02-14T16:52:33;10.00;;;4.33;;
10719;SDS011;5411;58.386;15.560;2024-02-14T16:55:03;6.83;;;4.37;;
10719;SDS011;5411;58.386;15.560;2024-02-14T16:57:32;7.70;;;4.00;;
10719;SDS011;5411;58.386;15.560;2024-02-14T17:00:01;5.70;;;3.57;;
10719;SDS011;5411;58.386;15.560;2024-02-14T17:02:31;7.10;;;4.20;;
10719;SDS011;5411;58.386;15.560;2024-02-14T17:04:59;9.33;;;4.10;;
10719;SDS011;5411;58.386;15.560;2024-02-14T17:07:30;6.97;;;3.87;;
10719;SDS011;5411;58.386;15.560;2024-02-14T17:09:58;6.13;;;3.97;;
10719;SDS011;5411;58.386;15.560;2024-02-14T17:12:30;5.80;;;4.30;;
10719;SDS011;5411;58.386;15.560;2024-02-14T17:14:58;6.97;;;3.63;;
10719;SDS011;5411;58.386;15.560;2024-02-14T17:17:27;8.50;;;3.60;;
10719;SDS011;5411;58.386;15.560;2024-02-14T17:19:55;5.73;;;4.50;;
10719;SDS011;5411;58.386;15.560;2024-02-14T17:22:24;7.17;;;4.33;;
10719;SDS011;5411;58.386;15.560;2024-02-14T17:24:57;6.80;;;3.97;;
10719;SDS011;5411;58.386;15.560;2024-02-14T17:27:27;7.90;;;3.93;;
10719;SDS011;5411;58.386;15.560;2024-02-14T17:29:56;8.23;;;3.80;;
10719;SDS011;5411;58.386;15.560;2024-02-14T17:32:27;7.57;;;3.60;;
10719;SDS011;5411;58.386;15.560;2024-02-14T17:35:06;5.53;;;4.73;;
10719;SDS011;5411;58.386;15.560;2024-02-14T17:37:35;8.13;;;4.43;;
10719;SDS011;5411;58.386;15.560;2024-02-14T17:40:05;6.23;;;4.30;;
10719;SDS011;5411;58.386;15.560;2024-02-14T17:42:36;9.90;;;4.27;;
10719;SDS011;5411;58.386;15.560;2024-02-14T17:45:05;7.53;;;4.20;;
10719;SDS011;5411;58.386;15.560;2024-02-14T17:47:35;6.53;;;4.67;;
10719;SDS011;5411;58.386;15.560;2024-02-14T17:50:05;9.63;;;5.47;;
10719;SDS011;5411;58.386;15.560;2024-02-14T17:52:37;9.07;;;4.20;;
10719;SDS011;5411;58.386;15.560;2024-02-14T17:55:06;7.03;;;4.53;;
10719;SDS011;5411;58.386;15.560;2024-02-14T17:57:38;6.23;;;4.23;;
10719;SDS011;5411;58.386;15.560;2024-02-14T18:00:07;8.70;;;4.67;;
10719;SDS011;5411;58.386;15.560;2024-02-14T18:02:39;7.40;;;4.33;;
10719;SDS011;5411;58.386;15.560;2024-02-14T18:05:08;7.97;;;4.83;;
10719;SDS011;5411;58.386;15.560;2024-02-14T18:07:36;6.90;;;4.73;;
10719;SDS011;5411;58.386;15.560;2024-02-14T18:10:05;9.03;;;4.77;;
10719;SDS011;5411;58.386;15.560;2024-02-14T18:12:35;9.57;;;4.40;;
10719;SDS011;5411;58.386;15.560;2024-02-14T18:15:05;7.97;;;5.13;;
10719;SDS011;5411;58.386;15.560;2024-02-14T18:17:35;7.10;;;4.30;;
10719;SDS011;5411;58.386;15.560;2024-02-14T18:20:09;9.17;;;4.63;;
10719;SDS011;5411;58.386;15.560;2024-02-14T18:22:42;10.23;;;4.83;;
10719;SDS011;5411;58.386;15.560;2024-02-14T18:25:30;6.87;;;4.50;;
10719;SDS011;5411;58.386;15.560;2024-02-14T18:27:59;6.27;;;4.50;;
10719;SDS011;5411;58.386;15.560;2024-02-14T18:30:30;7.03;;;4.07;;
10719;SDS011;5411;58.386;15.560;2024-02-14T18:33:00;5.90;;;4.17;;
10719;SDS011;5411;58.386;15.560;2024-02-14T18:35:30;6.63;;;5.03;;
10719;SDS011;5411;58.386;15.560;2024-02-14T18:38:00;7.70;;;4.20;;
10719;SDS011;5411;58.386;15.560;2024-02-14T18:40:55;7.00;;;4.17;;
10719;SDS011;5411;58.386;15.560;2024-02-14T18:43:29;8.20;;;4.77;;
10719;SDS011;5411;58.386;15.560;2024-02-14T18:46:01;8.17;;;4.57;;
10719;SDS011;5411;58.386;15.560;2024-02-14T18:48:50;6.37;;;4.40;;
10719;SDS011;5411;58.386;15.560;2024-02-14T18:51:21;6.37;;;4.73;;
10719;SDS011;5411;58.386;15.560;2024-02-14T18:54:19;7.77;;;4.70;;
10719;SDS011;5411;58.386;15.560;2024-02-14T18:57:15;7.63;;;4.63;;
10719;SDS011;5411;58.386;15.560;2024-02-14T18:59:48;8.17;;;4.67;;